createdAt,value
2018-01-07T00:00:20.226Z,6.44
2018-01-07T00:01:22.681Z,6.35
2018-01-07T00:02:25.146Z,6.43
2018-01-07T00:03:27.614Z,6.44
2018-01-07T00:04:30.092Z,6.42
2018-01-07T00:05:32.574Z,6.39
2018-01-07T00:06:35.053Z,6.34
2018-01-07T00:07:37.553Z,6.31
2018-01-07T00:08:40.066Z,6.31
2018-01-07T00:09:42.533Z,6.36
2018-01-07T00:10:44.994Z,6.31
2018-01-07T00:11:48.073Z,6.31
2018-01-07T00:12:50.557Z,6.36
2018-01-07T00:13:53.032Z,6.26
2018-01-07T00:14:55.507Z,6.30
2018-01-07T00:15:57.967Z,6.34
2018-01-07T00:17:00.444Z,6.26
2018-01-07T00:18:02.925Z,6.28
2018-01-07T00:19:05.411Z,6.26
2018-01-07T00:20:07.873Z,6.24
2018-01-07T00:21:10.384Z,6.19
2018-01-07T00:22:12.860Z,6.21
2018-01-07T00:23:15.322Z,6.29
2018-01-07T00:24:17.799Z,6.31
2018-01-07T00:25:20.264Z,6.36
2018-01-07T00:26:22.744Z,6.33
2018-01-07T00:27:25.210Z,6.31
2018-01-07T00:28:27.670Z,6.27
2018-01-07T00:29:30.148Z,6.26
2018-01-07T00:30:32.609Z,6.26
2018-01-07T00:31:35.070Z,6.35
2018-01-07T00:32:37.534Z,6.13
2018-01-07T00:33:40.006Z,6.10
2018-01-07T00:34:42.482Z,6.27
2018-01-07T00:35:44.964Z,6.37
2018-01-07T00:36:47.558Z,6.37
2018-01-07T00:37:50.050Z,6.37
2018-01-07T00:38:52.512Z,6.32
2018-01-07T00:39:54.974Z,6.32
2018-01-07T00:40:57.439Z,6.33
2018-01-07T00:41:59.903Z,6.35
2018-01-07T00:43:02.369Z,6.31
2018-01-07T00:44:04.853Z,6.34
2018-01-07T00:45:07.315Z,6.35
2018-01-07T00:46:10.053Z,6.38
2018-01-07T00:47:12.519Z,6.39
2018-01-07T00:48:14.997Z,6.41
2018-01-07T00:49:17.494Z,6.38
2018-01-07T00:50:19.969Z,6.36
2018-01-07T00:51:22.438Z,6.23
2018-01-07T00:52:24.897Z,6.32
2018-01-07T00:53:27.371Z,6.36
2018-01-07T00:54:29.838Z,6.34
2018-01-07T00:55:32.303Z,6.25
2018-01-07T00:56:34.767Z,6.30
2018-01-07T00:57:37.326Z,6.35
2018-01-07T00:58:39.810Z,6.32
2018-01-07T00:59:42.270Z,6.27
2018-01-07T01:00:44.735Z,6.27
2018-01-07T01:01:47.219Z,6.25
2018-01-07T01:02:49.691Z,6.19
2018-01-07T01:03:52.150Z,6.19
2018-01-07T01:04:54.633Z,6.21
2018-01-07T01:05:57.114Z,6.19
2018-01-07T01:06:59.580Z,6.24
2018-01-07T01:08:02.102Z,6.21
2018-01-07T01:09:04.580Z,6.23
2018-01-07T01:10:07.062Z,6.14
2018-01-07T01:11:09.543Z,6.19
2018-01-07T01:12:12.026Z,6.19
2018-01-07T01:13:14.486Z,6.22
2018-01-07T01:14:16.947Z,6.26
2018-01-07T01:15:19.424Z,6.22
2018-01-07T01:16:21.885Z,6.24
2018-01-07T01:17:24.380Z,6.19
2018-01-07T01:18:26.884Z,6.14
2018-01-07T01:19:29.350Z,6.03
2018-01-07T01:20:31.849Z,6.08
2018-01-07T01:21:34.324Z,6.10
2018-01-07T01:22:36.820Z,6.08
2018-01-07T01:23:39.334Z,6.00
2018-01-07T01:24:41.796Z,5.95
2018-01-07T01:25:44.254Z,5.93
2018-01-07T01:26:46.719Z,5.96
2018-01-07T01:27:49.231Z,5.89
2018-01-07T01:28:51.742Z,5.89
2018-01-07T01:29:54.215Z,5.77
2018-01-07T01:30:56.754Z,5.74
2018-01-07T01:31:59.229Z,5.77
2018-01-07T01:33:01.710Z,5.88
2018-01-07T01:34:04.178Z,5.86
2018-01-07T01:35:06.655Z,5.87
2018-01-07T01:36:09.148Z,5.93
2018-01-07T01:37:11.610Z,5.85
2018-01-07T01:38:14.223Z,5.79
2018-01-07T01:39:16.792Z,5.79
2018-01-07T01:40:19.466Z,5.77
2018-01-07T01:41:21.942Z,5.77
2018-01-07T01:42:24.406Z,5.72
2018-01-07T01:43:28.472Z,5.76
2018-01-07T01:44:30.933Z,5.78
2018-01-07T01:45:33.469Z,5.79
2018-01-07T01:46:36.068Z,5.76
2018-01-07T01:47:38.869Z,5.72
2018-01-07T01:48:41.419Z,5.72
2018-01-07T01:49:43.901Z,5.68
2018-01-07T01:50:46.376Z,5.60
2018-01-07T01:51:48.848Z,5.54
2018-01-07T01:52:51.306Z,5.61
2018-01-07T01:53:53.843Z,5.66
2018-01-07T01:54:56.363Z,5.59
2018-01-07T01:55:58.841Z,5.61
2018-01-07T01:57:01.310Z,5.58
2018-01-07T01:58:03.789Z,5.51
2018-01-07T01:59:06.266Z,5.51
2018-01-07T02:00:08.774Z,5.41
2018-01-07T02:01:12.498Z,5.38
2018-01-07T02:02:15.024Z,5.42
2018-01-07T02:03:17.496Z,5.34
2018-01-07T02:04:19.979Z,5.29
2018-01-07T02:05:22.436Z,5.28
2018-01-07T02:06:24.917Z,5.28
2018-01-07T02:07:27.671Z,5.27
2018-01-07T02:08:30.225Z,5.21
2018-01-07T02:09:32.694Z,5.21
2018-01-07T02:10:35.188Z,5.21
2018-01-07T02:11:37.800Z,5.23
2018-01-07T02:12:40.396Z,5.24
2018-01-07T02:13:42.873Z,5.23
2018-01-07T02:14:45.488Z,5.18
2018-01-07T02:15:48.133Z,5.16
2018-01-07T02:16:50.874Z,5.14
2018-01-07T02:17:53.419Z,5.15
2018-01-07T02:18:55.879Z,5.12
2018-01-07T02:19:58.360Z,5.14
2018-01-07T02:21:00.840Z,5.13
2018-01-07T02:22:03.302Z,5.21
2018-01-07T02:23:05.780Z,5.16
2018-01-07T02:24:08.272Z,5.16
2018-01-07T02:25:10.752Z,5.12
2018-01-07T02:26:13.214Z,5.13
2018-01-07T02:27:15.692Z,5.11
2018-01-07T02:28:18.168Z,5.15
2018-01-07T02:29:20.643Z,5.11
2018-01-07T02:30:23.114Z,5.04
2018-01-07T02:31:25.610Z,5.04
2018-01-07T02:32:29.113Z,5.05
2018-01-07T02:33:31.602Z,5.11
2018-01-07T02:34:34.067Z,5.06
2018-01-07T02:35:36.540Z,5.00
2018-01-07T02:36:39.019Z,4.99
2018-01-07T02:37:41.522Z,5.03
2018-01-07T02:38:43.978Z,5.01
2018-01-07T02:39:46.469Z,4.97
2018-01-07T02:40:48.939Z,5.02
2018-01-07T02:41:51.403Z,5.03
2018-01-07T02:42:53.862Z,5.02
2018-01-07T02:43:56.318Z,4.98
2018-01-07T02:44:58.862Z,4.99
2018-01-07T02:46:01.330Z,5.04
2018-01-07T02:47:03.810Z,4.96
2018-01-07T02:48:06.267Z,4.96
2018-01-07T02:49:08.783Z,4.95
2018-01-07T02:50:11.264Z,4.96
2018-01-07T02:51:13.748Z,4.84
2018-01-07T02:52:16.220Z,4.91
2018-01-07T02:53:18.698Z,5.02
2018-01-07T02:54:21.171Z,5.02
2018-01-07T02:55:23.632Z,5.03
2018-01-07T02:56:26.113Z,5.06
2018-01-07T02:57:28.570Z,5.03
2018-01-07T02:58:31.045Z,5.01
2018-01-07T02:59:33.521Z,5.04
2018-01-07T03:00:35.974Z,5.06
2018-01-07T03:01:38.436Z,5.03
2018-01-07T03:02:40.910Z,4.91
2018-01-07T03:03:43.376Z,5.02
2018-01-07T03:04:45.830Z,5.00
2018-01-07T03:05:48.313Z,4.99
2018-01-07T03:06:50.774Z,5.02
2018-01-07T03:07:53.244Z,5.00
2018-01-07T03:08:55.875Z,4.99
2018-01-07T03:09:58.369Z,5.01
2018-01-07T03:11:00.840Z,5.00
2018-01-07T03:12:03.310Z,5.01
2018-01-07T03:13:05.777Z,5.03
2018-01-07T03:14:08.248Z,5.00
2018-01-07T03:15:10.720Z,4.97
2018-01-07T03:16:13.203Z,4.95
2018-01-07T03:17:15.847Z,4.96
2018-01-07T03:18:18.367Z,4.91
2018-01-07T03:19:21.665Z,4.94
2018-01-07T03:20:24.127Z,4.94
2018-01-07T03:21:26.629Z,4.93
2018-01-07T03:22:29.110Z,4.88
2018-01-07T03:23:31.572Z,4.83
2018-01-07T03:24:34.048Z,4.82
2018-01-07T03:25:36.522Z,4.83
2018-01-07T03:26:39.030Z,4.86
2018-01-07T03:27:41.477Z,4.90
2018-01-07T03:28:43.948Z,4.88
2018-01-07T03:29:46.419Z,4.88
2018-01-07T03:30:48.892Z,4.90
2018-01-07T03:31:51.379Z,4.88
2018-01-07T03:32:53.838Z,4.86
2018-01-07T03:33:56.308Z,4.88
2018-01-07T03:34:58.776Z,4.87
2018-01-07T03:36:01.232Z,4.88
2018-01-07T03:37:03.734Z,4.83
2018-01-07T03:38:06.215Z,4.86
2018-01-07T03:39:08.669Z,4.82
2018-01-07T03:40:11.136Z,4.86
2018-01-07T03:41:13.590Z,4.90
2018-01-07T03:42:16.069Z,4.90
2018-01-07T03:43:18.528Z,4.95
2018-01-07T03:44:20.986Z,4.97
2018-01-07T03:45:23.462Z,4.93
2018-01-07T03:46:25.962Z,4.84
2018-01-07T03:48:30.177Z,4.88
2018-01-07T03:49:32.641Z,4.88
2018-01-07T03:50:35.104Z,4.90
2018-01-07T03:51:37.564Z,4.83
2018-01-07T03:52:40.056Z,4.86
2018-01-07T03:53:42.530Z,4.93
2018-01-07T03:54:44.999Z,4.95
2018-01-07T03:55:47.454Z,4.94
2018-01-07T03:56:49.919Z,4.79
2018-01-07T03:57:52.394Z,4.90
2018-01-07T03:58:54.856Z,4.96
2018-01-07T03:59:57.311Z,4.97
2018-01-07T04:00:59.762Z,4.93
2018-01-07T04:02:02.237Z,4.97
2018-01-07T04:03:04.724Z,4.96
2018-01-07T04:04:07.196Z,4.88
2018-01-07T04:05:09.650Z,4.96
2018-01-07T04:06:12.124Z,5.00
2018-01-07T04:07:14.601Z,4.96
2018-01-07T04:08:17.090Z,5.00
2018-01-07T04:09:19.567Z,4.99
2018-01-07T04:10:22.022Z,5.00
2018-01-07T04:11:24.515Z,4.98
2018-01-07T04:12:26.970Z,4.97
2018-01-07T04:13:29.471Z,4.97
2018-01-07T04:14:31.926Z,4.87
2018-01-07T04:15:34.396Z,4.96
2018-01-07T04:16:36.854Z,4.94
2018-01-07T04:17:39.310Z,4.92
2018-01-07T04:18:41.780Z,4.87
2018-01-07T04:19:44.233Z,4.86
2018-01-07T04:20:46.684Z,4.90
2018-01-07T04:21:49.152Z,4.95
2018-01-07T04:22:51.606Z,4.93
2018-01-07T04:23:54.084Z,4.93
2018-01-07T04:24:56.534Z,4.84
2018-01-07T04:25:58.998Z,4.84
2018-01-07T04:27:01.473Z,4.86
2018-01-07T04:28:03.942Z,4.85
2018-01-07T04:29:06.394Z,4.83
2018-01-07T04:30:08.875Z,4.89
2018-01-07T04:31:11.334Z,4.93
2018-01-07T04:32:13.818Z,4.90
2018-01-07T04:33:16.288Z,4.86
2018-01-07T04:34:18.740Z,4.92
2018-01-07T04:35:21.190Z,4.94
2018-01-07T04:36:23.659Z,4.92
2018-01-07T04:37:26.115Z,4.90
2018-01-07T04:38:28.584Z,4.89
2018-01-07T04:39:31.038Z,4.91
2018-01-07T04:40:33.494Z,4.98
2018-01-07T04:41:35.984Z,5.03
2018-01-07T04:42:38.442Z,5.05
2018-01-07T04:43:40.922Z,5.02
2018-01-07T04:44:43.395Z,5.03
2018-01-07T04:45:45.865Z,5.01
2018-01-07T04:46:48.325Z,4.98
2018-01-07T04:47:50.774Z,4.89
2018-01-07T04:48:53.396Z,4.85
2018-01-07T04:49:55.863Z,4.89
2018-01-07T04:50:58.323Z,4.85
2018-01-07T04:52:00.774Z,4.86
2018-01-07T04:53:03.238Z,4.84
2018-01-07T04:54:05.752Z,4.80
2018-01-07T04:55:08.202Z,4.83
2018-01-07T04:56:10.666Z,4.85
2018-01-07T04:57:13.162Z,4.87
2018-01-07T04:58:15.688Z,4.90
2018-01-07T04:59:18.177Z,4.91
2018-01-07T05:00:20.675Z,4.90
2018-01-07T05:01:23.252Z,4.92
2018-01-07T05:02:25.760Z,4.94
2018-01-07T05:03:28.228Z,4.92
2018-01-07T05:04:30.700Z,4.96
2018-01-07T05:05:33.165Z,4.92
2018-01-07T05:06:35.681Z,4.89
2018-01-07T05:07:38.152Z,4.87
2018-01-07T05:08:40.680Z,4.88
2018-01-07T05:09:43.174Z,4.88
2018-01-07T05:10:45.769Z,4.86
2018-01-07T05:11:48.236Z,4.84
2018-01-07T05:12:50.686Z,4.81
2018-01-07T05:13:53.148Z,4.78
2018-01-07T05:14:55.634Z,4.70
2018-01-07T05:15:58.104Z,4.67
2018-01-07T05:17:00.576Z,4.73
2018-01-07T05:18:03.034Z,4.66
2018-01-07T05:19:05.587Z,4.66
2018-01-07T05:20:08.071Z,4.79
2018-01-07T05:21:10.554Z,4.75
2018-01-07T05:22:13.032Z,4.74
2018-01-07T05:23:15.482Z,4.83
2018-01-07T05:24:17.938Z,4.80
2018-01-07T05:25:20.417Z,4.76
2018-01-07T05:26:22.887Z,4.79
2018-01-07T05:27:25.348Z,4.74
2018-01-07T05:28:27.820Z,4.81
2018-01-07T05:29:30.288Z,4.78
2018-01-07T05:30:32.763Z,4.75
2018-01-07T05:31:35.240Z,4.64
2018-01-07T05:32:37.710Z,4.77
2018-01-07T05:33:40.162Z,4.76
2018-01-07T05:34:42.614Z,4.78
2018-01-07T05:35:45.100Z,4.78
2018-01-07T05:36:47.578Z,4.81
2018-01-07T05:37:50.045Z,4.79
2018-01-07T05:38:52.494Z,4.78
2018-01-07T05:39:54.961Z,4.75
2018-01-07T05:40:57.438Z,4.71
2018-01-07T05:41:59.924Z,4.70
2018-01-07T05:43:02.381Z,4.74
2018-01-07T05:44:04.848Z,4.68
2018-01-07T05:45:07.300Z,4.68
2018-01-07T05:46:09.778Z,4.67
2018-01-07T05:47:12.252Z,4.67
2018-01-07T05:48:14.705Z,4.67
2018-01-07T05:49:17.169Z,4.59
2018-01-07T05:50:19.637Z,4.59
2018-01-07T05:51:22.123Z,4.60
2018-01-07T05:52:24.593Z,4.55
2018-01-07T05:53:27.046Z,4.60
2018-01-07T05:54:29.489Z,4.58
2018-01-07T05:55:31.960Z,4.51
2018-01-07T05:56:34.454Z,4.52
2018-01-07T05:57:36.907Z,4.50
2018-01-07T05:58:39.372Z,4.53
2018-01-07T05:59:41.823Z,4.55
2018-01-07T06:00:44.274Z,4.51
2018-01-07T06:01:46.774Z,4.52
2018-01-07T06:02:49.235Z,4.54
2018-01-07T06:03:51.687Z,4.51
2018-01-07T06:04:54.154Z,4.49
2018-01-07T06:05:56.645Z,4.49
2018-01-07T06:06:59.117Z,4.44
2018-01-07T06:08:01.574Z,4.46
2018-01-07T06:09:04.044Z,4.40
2018-01-07T06:10:06.510Z,4.42
2018-01-07T06:11:08.979Z,4.46
2018-01-07T06:12:11.454Z,4.42
2018-01-07T06:13:13.916Z,4.46
2018-01-07T06:14:16.385Z,4.41
2018-01-07T06:15:18.836Z,4.43
2018-01-07T06:16:21.297Z,4.47
2018-01-07T06:17:23.770Z,4.48
2018-01-07T06:18:26.226Z,4.47
2018-01-07T06:19:28.678Z,4.49
2018-01-07T06:20:31.168Z,4.41
2018-01-07T06:21:33.643Z,4.36
2018-01-07T06:22:36.146Z,4.33
2018-01-07T06:23:38.614Z,4.44
2018-01-07T06:24:41.070Z,4.49
2018-01-07T06:25:43.540Z,4.48
2018-01-07T06:26:45.996Z,4.39
2018-01-07T06:27:48.506Z,4.42
2018-01-07T06:28:50.981Z,4.43
2018-01-07T06:29:53.448Z,4.43
2018-01-07T06:30:55.911Z,4.33
2018-01-07T06:31:58.426Z,4.36
2018-01-07T06:33:00.955Z,4.40
2018-01-07T06:34:03.406Z,4.33
2018-01-07T06:35:05.876Z,4.41
2018-01-07T06:36:08.358Z,4.38
2018-01-07T06:37:10.849Z,4.38
2018-01-07T06:38:13.320Z,4.47
2018-01-07T06:39:15.788Z,4.49
2018-01-07T06:40:18.262Z,4.50
2018-01-07T06:41:20.726Z,4.41
2018-01-07T06:42:23.196Z,4.39
2018-01-07T06:43:25.688Z,4.37
2018-01-07T06:44:28.218Z,4.35
2018-01-07T06:45:30.656Z,4.32
2018-01-07T06:46:33.124Z,4.33
2018-01-07T06:47:35.574Z,4.29
2018-01-07T06:48:38.068Z,4.33
2018-01-07T06:49:40.533Z,4.42
2018-01-07T06:50:43.005Z,4.48
2018-01-07T06:51:45.480Z,4.47
2018-01-07T06:52:47.954Z,4.36
2018-01-07T06:53:50.444Z,4.41
2018-01-07T06:54:52.909Z,4.34
2018-01-07T06:55:55.380Z,4.35
2018-01-07T06:56:57.830Z,4.35
2018-01-07T06:58:00.286Z,4.37
2018-01-07T06:59:02.776Z,4.38
2018-01-07T07:00:05.228Z,4.42
2018-01-07T07:01:07.701Z,4.44
2018-01-07T07:02:10.177Z,4.48
2018-01-07T07:03:12.649Z,4.42
2018-01-07T07:04:15.140Z,4.41
2018-01-07T07:05:17.594Z,4.44
2018-01-07T07:06:20.068Z,4.44
2018-01-07T07:07:22.523Z,4.39
2018-01-07T07:08:24.994Z,4.35
2018-01-07T07:09:27.519Z,4.34
2018-01-07T07:10:29.978Z,4.35
2018-01-07T07:11:32.435Z,4.40
2018-01-07T07:12:34.890Z,4.43
2018-01-07T07:13:37.350Z,4.36
2018-01-07T07:14:39.821Z,4.34
2018-01-07T07:15:42.274Z,4.38
2018-01-07T07:16:44.746Z,4.42
2018-01-07T07:17:47.198Z,4.44
2018-01-07T07:18:49.651Z,4.44
2018-01-07T07:19:52.116Z,4.42
2018-01-07T07:20:54.591Z,4.46
2018-01-07T07:21:57.112Z,4.44
2018-01-07T07:22:59.588Z,4.46
2018-01-07T07:24:02.044Z,4.44
2018-01-07T07:25:04.506Z,4.47
2018-01-07T07:26:06.968Z,4.54
2018-01-07T07:27:09.422Z,4.55
2018-01-07T07:28:11.873Z,4.53
2018-01-07T07:29:14.334Z,4.54
2018-01-07T07:30:16.812Z,4.42
2018-01-07T07:31:19.280Z,4.49
2018-01-07T07:32:21.734Z,4.51
2018-01-07T07:33:24.194Z,4.54
2018-01-07T07:34:26.664Z,4.55
2018-01-07T07:35:29.128Z,4.54
2018-01-07T07:36:31.588Z,4.52
2018-01-07T07:37:34.061Z,4.56
2018-01-07T07:38:36.532Z,4.53
2018-01-07T07:39:38.986Z,4.54
2018-01-07T07:40:41.451Z,4.53
2018-01-07T07:41:43.924Z,4.56
2018-01-07T07:42:46.386Z,4.48
2018-01-07T07:43:48.912Z,4.46
2018-01-07T07:44:51.382Z,4.52
2018-01-07T07:45:53.869Z,4.59
2018-01-07T07:46:56.322Z,4.60
2018-01-07T07:47:58.789Z,4.58
2018-01-07T07:49:01.259Z,4.59
2018-01-07T07:50:03.714Z,4.63
2018-01-07T07:51:06.188Z,4.63
2018-01-07T07:52:08.659Z,4.47
2018-01-07T07:53:11.127Z,4.59
2018-01-07T07:54:13.597Z,4.64
2018-01-07T07:55:16.056Z,4.71
2018-01-07T07:56:18.511Z,4.69
2018-01-07T07:57:21.083Z,4.68
2018-01-07T07:58:23.548Z,4.65
2018-01-07T07:59:26.013Z,4.66
2018-01-07T08:00:28.471Z,4.70
2018-01-07T08:01:30.958Z,4.74
2018-01-07T08:02:33.441Z,4.70
2018-01-07T08:03:35.914Z,4.71
2018-01-07T08:04:38.366Z,4.73
2018-01-07T08:05:40.837Z,4.74
2018-01-07T08:06:43.299Z,4.76
2018-01-07T08:07:45.769Z,4.80
2018-01-07T08:08:48.322Z,4.73
2018-01-07T08:09:50.778Z,4.73
2018-01-07T08:10:53.230Z,4.79
2018-01-07T08:11:55.697Z,4.78
2018-01-07T08:12:58.178Z,4.80
2018-01-07T08:14:00.640Z,4.75
2018-01-07T08:15:03.102Z,4.75
2018-01-07T08:16:05.573Z,4.81
2018-01-07T08:17:08.041Z,4.76
2018-01-07T08:18:10.497Z,4.75
2018-01-07T08:19:12.973Z,4.71
2018-01-07T08:20:15.448Z,4.74
2018-01-07T08:21:17.920Z,4.81
2018-01-07T08:22:20.384Z,4.80
2018-01-07T08:23:22.846Z,4.82
2018-01-07T08:24:25.302Z,4.87
2018-01-07T08:25:27.793Z,4.76
2018-01-07T08:26:30.246Z,4.75
2018-01-07T08:27:32.719Z,4.79
2018-01-07T08:28:35.189Z,4.81
2018-01-07T08:29:37.666Z,4.81
2018-01-07T08:30:40.137Z,4.80
2018-01-07T08:31:42.596Z,4.79
2018-01-07T08:32:45.068Z,4.82
2018-01-07T08:33:47.540Z,4.83
2018-01-07T08:34:50.027Z,4.93
2018-01-07T08:35:52.533Z,4.83
2018-01-07T08:36:55.000Z,4.93
2018-01-07T08:37:57.468Z,4.89
2018-01-07T08:38:59.940Z,4.95
2018-01-07T08:40:02.441Z,5.07
2018-01-07T08:41:04.921Z,5.09
2018-01-07T08:42:07.391Z,4.99
2018-01-07T08:43:09.939Z,4.96
2018-01-07T08:44:12.423Z,4.89
2018-01-07T08:45:14.881Z,4.90
2018-01-07T08:46:17.348Z,4.96
2018-01-07T08:47:19.874Z,4.95
2018-01-07T08:48:22.352Z,5.04
2018-01-07T08:49:24.802Z,4.96
2018-01-07T08:50:27.273Z,5.03
2018-01-07T08:51:29.740Z,5.06
2018-01-07T08:52:32.198Z,5.13
2018-01-07T08:53:34.688Z,5.15
2018-01-07T08:54:37.138Z,5.12
2018-01-07T08:55:39.594Z,5.13
2018-01-07T08:56:42.105Z,5.17
2018-01-07T08:57:44.555Z,5.29
2018-01-07T08:58:47.007Z,5.38
2018-01-07T08:59:49.458Z,5.37
2018-01-07T09:00:51.925Z,5.42
2018-01-07T09:01:54.380Z,5.47
2018-01-07T09:02:56.860Z,5.49
2018-01-07T09:03:59.316Z,5.47
2018-01-07T09:05:01.765Z,5.47
2018-01-07T09:06:04.238Z,5.38
2018-01-07T09:07:06.720Z,5.55
2018-01-07T09:08:09.171Z,5.57
2018-01-07T09:09:11.622Z,5.55
2018-01-07T09:10:14.092Z,5.53
2018-01-07T09:11:16.558Z,5.67
2018-01-07T09:12:19.025Z,5.63
2018-01-07T09:13:21.488Z,5.59
2018-01-07T09:14:23.938Z,5.66
2018-01-07T09:15:26.400Z,5.68
2018-01-07T09:16:28.868Z,5.75
2018-01-07T09:17:31.328Z,5.79
2018-01-07T09:18:33.791Z,5.76
2018-01-07T09:19:36.272Z,5.87
2018-01-07T09:20:38.721Z,5.92
2018-01-07T09:21:41.189Z,5.84
2018-01-07T09:22:43.660Z,5.83
2018-01-07T09:23:46.119Z,5.75
2018-01-07T09:24:48.579Z,5.76
2018-01-07T09:25:51.040Z,5.74
2018-01-07T09:26:53.500Z,5.84
2018-01-07T09:27:55.974Z,5.83
2018-01-07T09:28:58.436Z,5.85
2018-01-07T09:30:00.905Z,5.81
2018-01-07T09:31:03.369Z,5.73
2018-01-07T09:32:05.840Z,5.83
2018-01-07T09:33:08.305Z,5.96
2018-01-07T09:34:10.769Z,6.11
2018-01-07T09:35:13.232Z,6.56
2018-01-07T09:36:15.696Z,6.38
2018-01-07T09:37:18.165Z,6.61
2018-01-07T09:38:20.644Z,6.81
2018-01-07T09:39:23.116Z,6.98
2018-01-07T09:40:25.582Z,7.58
2018-01-07T09:41:28.038Z,7.81
2018-01-07T09:42:30.498Z,8.10
2018-01-07T09:43:32.959Z,8.36
2018-01-07T09:44:35.410Z,9.35
2018-01-07T09:45:37.872Z,9.32
2018-01-07T09:46:40.336Z,9.50
2018-01-07T09:47:42.787Z,9.35
2018-01-07T09:48:45.234Z,9.01
2018-01-07T09:49:47.700Z,8.83
2018-01-07T09:50:50.164Z,8.99
2018-01-07T09:51:52.630Z,9.08
2018-01-07T09:52:55.121Z,9.25
2018-01-07T09:53:57.898Z,9.34
2018-01-07T09:55:00.374Z,8.85
2018-01-07T09:56:02.827Z,8.04
2018-01-07T09:57:05.297Z,8.64
2018-01-07T09:58:07.760Z,8.20
2018-01-07T09:59:10.292Z,8.05
2018-01-07T10:00:12.747Z,7.95
2018-01-07T10:01:15.216Z,7.96
2018-01-07T10:02:17.685Z,8.33
2018-01-07T10:03:20.146Z,8.07
2018-01-07T10:04:22.624Z,7.97
2018-01-07T10:05:25.093Z,8.21
2018-01-07T10:06:27.553Z,8.24
2018-01-07T10:07:30.021Z,8.38
2018-01-07T10:08:32.551Z,8.35
2018-01-07T10:09:35.012Z,8.67
2018-01-07T10:10:37.481Z,8.54
2018-01-07T10:11:39.944Z,8.39
2018-01-07T10:12:42.408Z,8.10
2018-01-07T10:13:44.862Z,7.69
2018-01-07T10:14:47.326Z,7.53
2018-01-07T10:15:49.794Z,7.52
2018-01-07T10:16:52.242Z,7.17
2018-01-07T10:17:54.698Z,7.34
2018-01-07T10:18:57.173Z,7.52
2018-01-07T10:19:59.634Z,7.67
2018-01-07T10:21:02.118Z,7.84
2018-01-07T10:22:04.588Z,7.91
2018-01-07T10:23:07.071Z,7.83
2018-01-07T10:24:09.543Z,7.74
2018-01-07T10:25:12.327Z,7.70
2018-01-07T10:26:14.794Z,7.68
2018-01-07T10:27:17.264Z,7.47
2018-01-07T10:28:19.813Z,7.03
2018-01-07T10:29:22.284Z,6.95
2018-01-07T10:30:24.762Z,6.59
2018-01-07T10:31:27.228Z,6.81
2018-01-07T10:32:29.692Z,6.76
2018-01-07T10:33:32.157Z,6.55
2018-01-07T10:34:34.655Z,6.62
2018-01-07T10:35:37.111Z,6.52
2018-01-07T10:36:39.570Z,6.37
2018-01-07T10:37:42.024Z,6.38
2018-01-07T10:38:44.480Z,6.26
2018-01-07T10:39:46.953Z,6.25
2018-01-07T10:40:49.410Z,6.27
2018-01-07T10:41:51.878Z,6.20
2018-01-07T10:42:54.339Z,6.26
2018-01-07T10:43:56.804Z,6.42
2018-01-07T10:44:59.265Z,6.42
2018-01-07T10:46:01.727Z,6.44
2018-01-07T10:47:04.204Z,6.54
2018-01-07T10:48:06.668Z,6.51
2018-01-07T10:49:09.146Z,6.50
2018-01-07T10:50:11.627Z,6.55
2018-01-07T10:51:14.226Z,6.67
2018-01-07T10:52:16.742Z,6.59
2018-01-07T10:53:19.219Z,6.51
2018-01-07T10:54:21.678Z,6.47
2018-01-07T10:55:24.130Z,6.32
2018-01-07T10:56:26.630Z,6.14
2018-01-07T10:57:29.101Z,6.07
2018-01-07T10:58:31.567Z,6.13
2018-01-07T10:59:34.040Z,6.19
2018-01-07T11:00:42.053Z,6.14
2018-01-07T11:01:50.162Z,6.04
2018-01-07T11:02:52.624Z,6.10
2018-01-07T11:03:55.898Z,6.31
2018-01-07T11:04:58.364Z,6.42
2018-01-07T11:06:00.824Z,6.36
2018-01-07T11:07:03.278Z,6.34
2018-01-07T11:08:05.745Z,6.46
2018-01-07T11:09:08.258Z,6.50
2018-01-07T11:10:10.726Z,6.22
2018-01-07T11:11:13.177Z,5.99
2018-01-07T11:12:15.631Z,5.90
2018-01-07T11:13:18.101Z,6.02
2018-01-07T11:14:20.568Z,6.15
2018-01-07T11:15:23.030Z,6.18
2018-01-07T11:16:25.484Z,6.31
2018-01-07T11:17:27.934Z,6.38
2018-01-07T11:18:30.470Z,6.31
2018-01-07T11:19:32.940Z,6.14
2018-01-07T11:20:35.399Z,6.28
2018-01-07T11:21:37.853Z,6.26
2018-01-07T11:22:40.326Z,6.18
2018-01-07T11:23:42.802Z,6.14
2018-01-07T11:24:45.253Z,5.98
2018-01-07T11:25:47.720Z,5.96
2018-01-07T11:26:50.233Z,5.97
2018-01-07T11:27:52.705Z,5.85
2018-01-07T11:28:55.158Z,5.77
2018-01-07T11:29:57.642Z,5.76
2018-01-07T11:31:00.384Z,5.87
2018-01-07T11:32:02.841Z,5.96
2018-01-07T11:33:05.313Z,6.08
2018-01-07T11:34:07.792Z,6.18
2018-01-07T11:35:10.266Z,6.35
2018-01-07T11:36:12.745Z,6.34
2018-01-07T11:37:15.206Z,6.34
2018-01-07T11:38:17.693Z,6.35
2018-01-07T11:39:20.152Z,6.38
2018-01-07T11:40:22.628Z,6.58
2018-01-07T11:41:25.095Z,6.66
2018-01-07T11:42:27.562Z,6.84
2018-01-07T11:43:30.874Z,7.04
2018-01-07T11:44:33.326Z,6.82
2018-01-07T11:45:35.792Z,6.93
2018-01-07T11:46:38.250Z,7.44
2018-01-07T11:47:40.738Z,7.18
2018-01-07T11:48:43.213Z,7.40
2018-01-07T11:49:45.736Z,7.32
2018-01-07T11:50:48.195Z,7.45
2018-01-07T11:51:50.650Z,7.61
2018-01-07T11:52:53.102Z,7.53
2018-01-07T11:53:55.564Z,7.47
2018-01-07T11:54:58.232Z,7.34
2018-01-07T11:56:00.720Z,7.42
2018-01-07T11:57:03.175Z,7.44
2018-01-07T11:58:05.993Z,7.36
2018-01-07T11:59:08.464Z,7.30
2018-01-07T12:00:10.922Z,7.15
2018-01-07T12:01:13.386Z,6.92
2018-01-07T12:02:15.853Z,6.93
2018-01-07T12:03:18.313Z,6.96
2018-01-07T12:04:20.793Z,7.01
2018-01-07T12:05:23.251Z,6.77
2018-01-07T12:06:25.717Z,6.62
2018-01-07T12:07:28.200Z,6.49
2018-01-07T12:08:30.899Z,6.59
2018-01-07T12:09:33.407Z,6.65
2018-01-07T12:10:35.917Z,6.66
2018-01-07T12:11:38.476Z,6.79
2018-01-07T12:12:41.034Z,6.65
2018-01-07T12:13:43.500Z,6.62
2018-01-07T12:14:45.992Z,6.55
2018-01-07T12:15:48.452Z,6.47
2018-01-07T12:16:50.939Z,6.45
2018-01-07T12:17:53.408Z,6.53
2018-01-07T12:18:55.885Z,6.49
2018-01-07T12:19:58.404Z,6.44
2018-01-07T12:21:00.908Z,6.51
2018-01-07T12:22:03.385Z,6.36
2018-01-07T12:23:05.842Z,6.49
2018-01-07T12:24:08.323Z,6.32
2018-01-07T12:25:10.814Z,6.19
2018-01-07T12:26:13.284Z,6.28
2018-01-07T12:27:15.755Z,6.45
2018-01-07T12:28:18.224Z,6.50
2018-01-07T12:29:20.680Z,6.42
2018-01-07T12:30:23.177Z,6.30
2018-01-07T12:31:26.636Z,6.18
2018-01-07T12:32:29.278Z,6.19
2018-01-07T12:33:31.790Z,6.14
2018-01-07T12:34:34.272Z,6.12
2018-01-07T12:35:36.767Z,6.14
2018-01-07T12:36:39.311Z,6.14
2018-01-07T12:37:41.844Z,6.16
2018-01-07T12:38:44.332Z,6.10
2018-01-07T12:39:46.789Z,6.05
2018-01-07T12:40:49.284Z,6.15
2018-01-07T12:41:51.734Z,6.07
2018-01-07T12:42:54.948Z,5.96
2018-01-07T12:43:57.435Z,5.94
2018-01-07T12:44:59.946Z,5.97
2018-01-07T12:46:02.435Z,5.96
2018-01-07T12:47:04.941Z,6.01
2018-01-07T12:48:07.404Z,6.03
2018-01-07T12:49:09.918Z,5.94
2018-01-07T12:50:12.380Z,6.08
2018-01-07T12:51:14.904Z,6.14
2018-01-07T12:52:17.372Z,6.15
2018-01-07T12:53:20.314Z,6.22
2018-01-07T12:54:22.771Z,6.31
2018-01-07T12:55:25.866Z,6.31
2018-01-07T12:56:28.456Z,6.37
2018-01-07T12:57:30.947Z,6.03
2018-01-07T12:58:33.565Z,6.08
2018-01-07T12:59:36.144Z,6.12
2018-01-07T13:00:38.632Z,6.06
2018-01-07T13:01:41.162Z,6.02
2018-01-07T13:02:43.635Z,6.01
2018-01-07T13:03:46.106Z,5.91
2018-01-07T13:04:48.563Z,5.96
2018-01-07T13:05:51.014Z,5.92
2018-01-07T13:06:53.523Z,6.04
2018-01-07T13:07:56.053Z,6.11
2018-01-07T13:08:58.528Z,6.01
2018-01-07T13:10:01.554Z,5.94
2018-01-07T13:11:04.027Z,5.93
2018-01-07T13:12:06.546Z,5.96
2018-01-07T13:13:09.023Z,6.02
2018-01-07T13:14:11.528Z,6.12
2018-01-07T13:15:14.003Z,6.22
2018-01-07T13:16:16.479Z,6.24
2018-01-07T13:17:18.988Z,6.26
2018-01-07T13:18:21.515Z,6.15
2018-01-07T13:19:24.011Z,6.08
2018-01-07T13:20:26.497Z,5.98
2018-01-07T13:21:28.965Z,5.99
2018-01-07T13:22:31.479Z,6.09
2018-01-07T13:23:33.949Z,6.07
2018-01-07T13:24:36.506Z,5.93
2018-01-07T13:25:38.969Z,5.90
2018-01-07T13:26:41.464Z,5.86
2018-01-07T13:27:43.941Z,5.90
2018-01-07T13:28:46.464Z,5.85
2018-01-07T13:29:48.938Z,5.97
2018-01-07T13:30:51.412Z,6.02
2018-01-07T13:31:53.866Z,6.04
2018-01-07T13:32:56.368Z,5.95
2018-01-07T13:33:58.841Z,5.94
2018-01-07T13:35:01.350Z,5.88
2018-01-07T13:36:03.788Z,5.88
2018-01-07T13:37:06.249Z,5.91
2018-01-07T13:38:08.727Z,6.03
2018-01-07T13:39:11.194Z,5.95
2018-01-07T13:40:13.646Z,6.05
2018-01-07T13:41:16.128Z,6.14
2018-01-07T13:42:18.601Z,6.15
2018-01-07T13:43:21.085Z,5.99
2018-01-07T13:44:23.569Z,6.04
2018-01-07T13:45:26.041Z,6.03
2018-01-07T13:46:28.513Z,6.09
2018-01-07T13:47:30.982Z,5.90
2018-01-07T13:48:34.306Z,5.91
2018-01-07T13:49:37.368Z,5.99
2018-01-07T13:50:39.855Z,5.99
2018-01-07T13:51:42.527Z,6.01
2018-01-07T13:52:45.009Z,5.86